Time;durP1;ratioP1;P1;durP2;ratioP2;P2;SDS_P1;SDS_P2;PMS_P1;PMS_P2;Temp;Humidity;BMP_temperature;BMP_pressure;BME280_temperature;BME280_humidity;BME280_pressure;Samples;Min_cycle;Max_cycle;Signal;HPM_P1;HPM_P2
2023/05/29 00:01:11;;;;;;;4.80;3.97;;;13.00;99.90;;;;;;5040340;28;20798;-80
2023/05/29 00:03:38;;;;;;;4.77;4.23;;;12.90;99.90;;;;;;5045107;28;20920;-81
2023/05/29 00:06:06;;;;;;;7.53;4.63;;;12.80;99.90;;;;;;5045087;28;20465;-79
2023/05/29 00:08:35;;;;;;;6.60;4.70;;;12.80;99.90;;;;;;5045389;28;20928;-76
2023/05/29 00:11:02;;;;;;;7.73;4.20;;;12.80;99.90;;;;;;5040549;28;20441;-78
2023/05/29 00:13:28;;;;;;;6.40;4.50;;;12.70;99.90;;;;;;5029374;28;20462;-80
2023/05/29 00:15:56;;;;;;;10.30;5.50;;;12.60;99.90;;;;;;5041490;28;21191;-79
2023/05/29 00:18:23;;;;;;;6.13;5.53;;;12.30;99.90;;;;;;5044523;28;20480;-79
2023/05/29 00:20:50;;;;;;;5.90;4.43;;;12.20;99.90;;;;;;5045538;28;20936;-80
2023/05/29 00:23:17;;;;;;;6.83;4.83;;;12.20;99.90;;;;;;5040311;28;21016;-80
2023/05/29 00:25:45;;;;;;;5.20;4.27;;;12.10;99.90;;;;;;5040522;28;20542;-79
2023/05/29 00:28:12;;;;;;;5.70;4.20;;;12.00;99.90;;;;;;5041295;28;20493;-79
2023/05/29 00:30:40;;;;;;;8.27;4.93;;;12.00;99.90;;;;;;5045111;28;20564;-82
2023/05/29 00:33:08;;;;;;;5.53;3.90;;;11.90;99.90;;;;;;5040769;28;20472;-82
2023/05/29 00:35:35;;;;;;;5.10;4.60;;;11.90;99.90;;;;;;5041572;28;20883;-78
2023/05/29 00:38:02;;;;;;;4.67;4.13;;;11.70;99.90;;;;;;5052217;28;20587;-81
2023/05/29 00:40:29;;;;;;;5.40;4.47;;;11.50;99.90;;;;;;5050911;28;21124;-78
2023/05/29 00:42:57;;;;;;;6.53;5.03;;;11.40;99.90;;;;;;5044293;28;20489;-82
2023/05/29 00:45:24;;;;;;;7.10;4.37;;;11.30;99.90;;;;;;5043013;28;20517;-80
2023/05/29 00:47:51;;;;;;;8.43;4.60;;;11.20;99.90;;;;;;5044044;28;20793;-78
2023/05/29 00:50:18;;;;;;;6.17;4.27;;;11.20;99.90;;;;;;5039987;28;20493;-80
2023/05/29 00:52:46;;;;;;;5.33;4.10;;;11.10;99.90;;;;;;5037191;28;20489;-78
2023/05/29 00:55:14;;;;;;;4.47;3.30;;;11.00;99.90;;;;;;5045211;28;20457;-81
2023/05/29 00:57:41;;;;;;;8.83;4.60;;;11.00;99.90;;;;;;5046532;28;20461;-82
2023/05/29 01:00:13;;;;;;;6.10;4.60;;;11.00;99.90;;;;;;5040188;28;20517;-80
2023/05/29 01:02:44;;;;;;;10.03;4.50;;;10.90;99.90;;;;;;5044304;28;20464;-80
2023/05/29 01:05:11;;;;;;;6.20;4.30;;;10.90;99.90;;;;;;5029157;28;20450;-80
2023/05/29 01:07:38;;;;;;;5.53;4.20;;;10.90;99.90;;;;;;5044617;28;20449;-79
2023/05/29 01:10:07;;;;;;;11.43;5.00;;;10.80;99.90;;;;;;5036454;28;21059;-78
2023/05/29 01:12:39;;;;;;;5.73;4.60;;;10.80;99.90;;;;;;5045313;28;20452;-80
2023/05/29 01:15:29;;;;;;;11.17;5.23;;;10.70;99.90;;;;;;5038277;28;20552;-79
2023/05/29 01:18:11;;;;;;;4.23;3.83;;;10.80;99.90;;;;;;5044520;28;20453;-83
2023/05/29 01:20:44;;;;;;;5.50;4.50;;;10.70;99.90;;;;;;5039374;28;20481;-80
2023/05/29 01:23:49;;;;;;;5.57;4.63;;;10.70;99.90;;;;;;5030306;28;20470;-81
2023/05/29 01:26:27;;;;;;;7.30;5.00;;;10.70;99.90;;;;;;5043973;28;20452;-84
2023/05/29 01:28:58;;;;;;;4.67;3.20;;;10.70;99.90;;;;;;5041598;28;20465;-80
2023/05/29 01:31:27;;;;;;;5.37;4.37;;;10.70;99.90;;;;;;5041308;28;21207;-78
2023/05/29 01:33:55;;;;;;;6.77;4.57;;;10.60;99.90;;;;;;5040554;28;20489;-80
2023/05/29 01:36:22;;;;;;;4.43;3.73;;;10.60;99.90;;;;;;5041646;28;20493;-80
2023/05/29 01:38:51;;;;;;;4.47;3.50;;;10.50;99.90;;;;;;5041345;28;20473;-79
2023/05/29 01:41:19;;;;;;;4.37;3.80;;;10.50;99.90;;;;;;5047208;28;20468;-81
2023/05/29 01:43:47;;;;;;;5.97;4.23;;;10.50;99.90;;;;;;5041822;28;20505;-80
2023/05/29 01:46:16;;;;;;;4.27;3.40;;;10.50;99.90;;;;;;5052550;28;20543;-80
2023/05/29 01:48:44;;;;;;;4.70;3.93;;;10.50;99.90;;;;;;5038383;28;20492;-80
2023/05/29 01:51:12;;;;;;;5.83;4.57;;;10.40;99.90;;;;;;5040955;28;20465;-80
2023/05/29 01:53:40;;;;;;;6.37;4.33;;;10.40;99.90;;;;;;5052721;28;20460;-80
2023/05/29 01:56:07;;;;;;;4.87;4.47;;;10.30;99.90;;;;;;5044126;28;20462;-80
2023/05/29 01:58:35;;;;;;;11.10;4.97;;;10.30;99.90;;;;;;5046090;28;20581;-80
2023/05/29 02:01:03;;;;;;;5.33;4.37;;;10.20;99.90;;;;;;5041120;28;20460;-80
2023/05/29 02:03:31;;;;;;;7.07;4.67;;;10.20;99.90;;;;;;5034898;28;20469;-80
2023/05/29 02:06:01;;;;;;;5.70;4.60;;;10.20;99.90;;;;;;5047393;28;20470;-83
2023/05/29 02:08:28;;;;;;;6.40;4.50;;;10.20;99.90;;;;;;5039133;28;20506;-81
2023/05/29 02:10:56;;;;;;;7.53;5.00;;;10.10;99.90;;;;;;5044555;28;20490;-80
2023/05/29 02:13:23;;;;;;;6.43;4.07;;;10.10;99.90;;;;;;5054460;28;20466;-79
2023/05/29 02:15:49;;;;;;;5.40;4.30;;;10.10;99.90;;;;;;5046322;28;20488;-82
2023/05/29 02:18:18;;;;;;;7.37;5.50;;;10.00;99.90;;;;;;5047852;28;20450;-79
2023/05/29 02:20:47;;;;;;;6.07;4.73;;;9.90;99.90;;;;;;5039276;28;20548;-80
2023/05/29 02:23:15;;;;;;;5.93;5.43;;;9.90;99.90;;;;;;5034846;28;20517;-79
2023/05/29 02:25:42;;;;;;;5.93;4.97;;;9.90;99.90;;;;;;5039313;28;20987;-79
2023/05/29 02:28:09;;;;;;;5.63;5.00;;;9.90;99.90;;;;;;5041327;28;20517;-79
2023/05/29 02:30:36;;;;;;;8.63;4.80;;;9.90;99.90;;;;;;5040680;28;20941;-79
2023/05/29 02:33:03;;;;;;;6.83;5.37;;;9.90;99.90;;;;;;5038371;28;20511;-82
2023/05/29 02:35:30;;;;;;;5.60;3.50;;;9.80;99.90;;;;;;5053124;28;20986;-80
2023/05/29 02:37:58;;;;;;;7.20;4.80;;;9.80;99.90;;;;;;5046401;28;21335;-81
2023/05/29 02:40:25;;;;;;;6.00;4.57;;;9.80;99.90;;;;;;5041015;28;20489;-81
2023/05/29 02:42:53;;;;;;;6.17;4.97;;;9.70;99.90;;;;;;5036763;28;20512;-79
2023/05/29 02:45:20;;;;;;;5.37;4.10;;;9.70;99.90;;;;;;5042815;28;20481;-80
2023/05/29 02:47:47;;;;;;;5.67;4.00;;;9.80;99.90;;;;;;5043633;28;20449;-76
2023/05/29 02:50:14;;;;;;;8.27;5.17;;;9.70;99.90;;;;;;5035557;28;20523;-80
2023/05/29 02:52:41;;;;;;;7.83;4.60;;;9.80;99.90;;;;;;5042560;28;20940;-77
2023/05/29 02:55:10;;;;;;;6.50;4.50;;;9.70;99.90;;;;;;5032169;28;20438;-77
2023/05/29 02:57:37;;;;;;;8.77;4.33;;;9.70;99.90;;;;;;5036772;28;20985;-78
2023/05/29 03:00:07;;;;;;;6.00;4.77;;;9.60;99.90;;;;;;5042660;28;21016;-81
2023/05/29 03:02:34;;;;;;;6.20;4.33;;;9.50;99.90;;;;;;5035489;28;20442;-77
2023/05/29 03:05:01;;;;;;;8.47;4.57;;;9.50;99.90;;;;;;5039527;28;21156;-77
2023/05/29 03:07:28;;;;;;;7.27;4.67;;;9.50;99.90;;;;;;5042106;28;20461;-79
2023/05/29 03:09:56;;;;;;;6.83;4.70;;;9.40;99.90;;;;;;5040907;28;20497;-78
2023/05/29 03:12:25;;;;;;;6.67;4.47;;;9.40;99.90;;;;;;5036781;28;20450;-78
2023/05/29 03:14:52;;;;;;;4.43;3.87;;;9.40;99.90;;;;;;5040146;28;20461;-78
2023/05/29 03:17:19;;;;;;;8.53;4.27;;;9.40;99.90;;;;;;5040355;28;20851;-81
2023/05/29 03:19:45;;;;;;;5.60;4.27;;;9.40;99.90;;;;;;5041774;28;20516;-78
2023/05/29 03:22:12;;;;;;;5.10;4.00;;;9.40;99.90;;;;;;5046589;28;20527;-82
2023/05/29 03:24:39;;;;;;;6.30;4.40;;;9.40;99.90;;;;;;5044783;28;20469;-78
2023/05/29 03:27:06;;;;;;;4.40;3.70;;;9.50;99.90;;;;;;5045665;28;20497;-78
2023/05/29 03:29:34;;;;;;;5.00;4.10;;;9.50;99.90;;;;;;5046638;28;20449;-78
2023/05/29 03:32:02;;;;;;;6.33;4.57;;;9.50;99.90;;;;;;5039650;28;20478;-77
2023/05/29 03:34:29;;;;;;;4.43;3.77;;;9.60;99.90;;;;;;5043917;28;20779;-77
2023/05/29 03:36:56;;;;;;;5.77;3.80;;;9.70;99.90;;;;;;5036283;28;20889;-78
2023/05/29 03:39:23;;;;;;;7.13;3.70;;;9.70;99.90;;;;;;5042780;28;20485;-77
2023/05/29 03:41:50;;;;;;;6.97;4.20;;;9.70;99.90;;;;;;5033553;28;21053;-80
2023/05/29 03:44:17;;;;;;;5.40;4.10;;;9.70;99.90;;;;;;5038852;28;21228;-79
2023/05/29 03:46:45;;;;;;;6.07;4.40;;;9.80;99.90;;;;;;5045971;28;20474;-79
2023/05/29 03:49:12;;;;;;;6.80;4.27;;;9.80;99.90;;;;;;5043434;28;20489;-77
2023/05/29 03:51:39;;;;;;;4.00;3.60;;;9.90;99.90;;;;;;5043326;28;20493;-79
2023/05/29 03:54:06;;;;;;;5.53;3.90;;;9.90;99.90;;;;;;5043890;28;21261;-77
2023/05/29 03:56:35;;;;;;;5.37;4.23;;;10.00;99.90;;;;;;5046159;28;20473;-79
2023/05/29 03:59:01;;;;;;;5.40;4.13;;;10.10;99.90;;;;;;5043161;28;20461;-78
2023/05/29 04:01:28;;;;;;;5.77;3.70;;;10.20;99.90;;;;;;5045194;28;20489;-78
2023/05/29 04:03:57;;;;;;;6.00;4.93;;;10.30;99.90;;;;;;5047854;28;20493;-79
2023/05/29 04:06:24;;;;;;;4.17;3.77;;;10.20;99.90;;;;;;5044814;28;21155;-78
2023/05/29 04:08:51;;;;;;;4.97;4.30;;;10.30;99.90;;;;;;5044926;28;20455;-77
2023/05/29 04:11:20;;;;;;;4.97;3.93;;;10.40;99.90;;;;;;5050317;28;20543;-78
2023/05/29 04:13:47;;;;;;;5.33;3.70;;;10.50;99.90;;;;;;5054102;28;20581;-77
2023/05/29 04:16:14;;;;;;;9.47;4.60;;;10.60;99.90;;;;;;5045685;28;20500;-77
2023/05/29 04:18:41;;;;;;;5.27;4.77;;;10.70;99.90;;;;;;5037710;28;20949;-81
2023/05/29 04:21:11;;;;;;;9.20;5.10;;;10.70;99.90;;;;;;5042146;28;20562;-78
2023/05/29 04:23:37;;;;;;;6.90;4.50;;;10.70;99.90;;;;;;5040450;28;20441;-79
2023/05/29 04:26:05;;;;;;;6.20;3.27;;;10.70;99.90;;;;;;5043030;28;20458;-81
2023/05/29 04:28:32;;;;;;;4.00;3.30;;;10.90;99.90;;;;;;5047931;28;20465;-78
2023/05/29 04:31:00;;;;;;;4.30;3.90;;;10.90;99.90;;;;;;5039689;28;20564;-80
2023/05/29 04:33:28;;;;;;;5.63;4.20;;;10.80;99.90;;;;;;5041598;28;20476;-78
2023/05/29 04:35:55;;;;;;;7.33;4.17;;;11.00;99.90;;;;;;5041416;28;20554;-79
2023/05/29 04:38:24;;;;;;;5.63;4.60;;;11.10;99.90;;;;;;5042198;28;20457;-80
2023/05/29 04:40:52;;;;;;;8.20;4.53;;;11.30;99.90;;;;;;5039426;28;20476;-78
2023/05/29 04:43:19;;;;;;;5.13;4.23;;;11.30;99.90;;;;;;5042129;28;20466;-78
2023/05/29 04:45:48;;;;;;;6.10;5.13;;;11.50;99.90;;;;;;5050149;28;21190;-78
2023/05/29 04:48:16;;;;;;;4.93;4.30;;;11.50;99.90;;;;;;5041285;28;20461;-78
2023/05/29 04:50:44;;;;;;;5.40;4.27;;;11.60;99.90;;;;;;5043719;28;20469;-79
2023/05/29 04:53:11;;;;;;;3.83;3.53;;;11.80;99.90;;;;;;5041264;28;20473;-82
2023/05/29 04:55:40;;;;;;;4.60;3.90;;;11.90;99.90;;;;;;5039115;28;20442;-83
2023/05/29 04:58:07;;;;;;;4.13;3.70;;;12.10;99.90;;;;;;5042645;28;21011;-82
2023/05/29 05:00:34;;;;;;;5.77;4.40;;;12.30;99.90;;;;;;5037675;28;20495;-82
2023/05/29 05:03:01;;;;;;;7.77;4.43;;;12.30;99.90;;;;;;5037244;28;20564;-80
2023/05/29 05:05:28;;;;;;;5.40;4.10;;;12.30;99.90;;;;;;5041553;28;20543;-80
2023/05/29 05:07:55;;;;;;;5.97;4.53;;;12.30;99.90;;;;;;5041875;28;20449;-85
2023/05/29 05:10:22;;;;;;;4.73;4.17;;;12.40;99.90;;;;;;5045581;28;20526;-87
2023/05/29 05:12:50;;;;;;;8.57;4.83;;;12.60;99.90;;;;;;5039308;28;20461;-82
2023/05/29 05:15:17;;;;;;;5.23;4.67;;;12.60;99.90;;;;;;5047141;28;20485;-83
2023/05/29 05:17:44;;;;;;;7.30;4.30;;;12.60;99.90;;;;;;5037743;28;20458;-84
2023/05/29 05:20:13;;;;;;;4.27;3.80;;;12.70;99.90;;;;;;5047152;28;20485;-82
2023/05/29 05:22:39;;;;;;;5.00;4.50;;;12.70;99.90;;;;;;5046160;28;21041;-83
2023/05/29 05:25:07;;;;;;;5.80;4.43;;;12.80;99.90;;;;;;5046471;28;20464;-82
2023/05/29 05:27:34;;;;;;;6.57;5.93;;;12.80;99.90;;;;;;5042065;28;20461;-84
2023/05/29 05:30:03;;;;;;;6.60;5.37;;;12.90;99.90;;;;;;5047965;28;20496;-82
2023/05/29 05:32:30;;;;;;;6.37;5.10;;;12.80;99.90;;;;;;5044346;28;20457;-82
2023/05/29 05:34:57;;;;;;;6.40;4.33;;;12.90;99.90;;;;;;5043002;28;20502;-83
2023/05/29 05:37:24;;;;;;;5.20;4.60;;;12.90;99.90;;;;;;5045645;28;20828;-83
2023/05/29 05:39:53;;;;;;;7.20;4.53;;;13.10;99.90;;;;;;5045824;28;20562;-82
2023/05/29 05:42:20;;;;;;;5.17;4.13;;;13.40;99.90;;;;;;5045204;28;20540;-83
2023/05/29 05:44:47;;;;;;;5.07;4.57;;;13.70;99.90;;;;;;5047018;28;20547;-85
2023/05/29 05:47:16;;;;;;;6.40;4.70;;;13.90;99.90;;;;;;5045256;28;20556;-82
2023/05/29 05:49:43;;;;;;;8.80;4.90;;;14.10;99.90;;;;;;5044178;28;20489;-84
2023/05/29 05:52:10;;;;;;;4.77;4.37;;;14.10;99.90;;;;;;5045961;28;20536;-84
2023/05/29 05:54:37;;;;;;;8.57;4.03;;;14.00;99.90;;;;;;5045556;28;20472;-83
2023/05/29 05:57:06;;;;;;;5.33;4.33;;;14.10;99.90;;;;;;5040665;28;20519;-85
2023/05/29 05:59:33;;;;;;;5.70;4.33;;;14.20;99.90;;;;;;5043408;28;20461;-82
2023/05/29 06:01:59;;;;;;;5.00;4.53;;;14.40;99.90;;;;;;5043675;28;20489;-79
2023/05/29 06:04:28;;;;;;;5.70;4.70;;;14.80;99.90;;;;;;5048106;28;21248;-78
2023/05/29 06:06:55;;;;;;;8.10;5.70;;;15.10;99.90;;;;;;5047576;28;20465;-78
2023/05/29 06:09:22;;;;;;;9.33;5.73;;;15.20;99.90;;;;;;5043042;28;20557;-82
2023/05/29 06:11:49;;;;;;;6.87;4.63;;;15.50;99.90;;;;;;5037999;28;20449;-81
2023/05/29 06:14:16;;;;;;;6.83;5.20;;;15.60;99.90;;;;;;5043797;28;20500;-86
2023/05/29 06:16:43;;;;;;;5.37;4.40;;;15.50;99.90;;;;;;5045487;28;20833;-81
2023/05/29 06:19:10;;;;;;;14.77;6.50;;;15.40;99.90;;;;;;5046997;28;20471;-84
2023/05/29 06:21:38;;;;;;;5.30;4.80;;;15.40;99.90;;;;;;5038933;28;20484;-80
2023/05/29 06:24:06;;;;;;;6.73;4.87;;;15.50;99.90;;;;;;5047652;28;20518;-80
2023/05/29 06:26:32;;;;;;;8.17;5.07;;;15.60;99.90;;;;;;5038433;28;21042;-79
2023/05/29 06:28:59;;;;;;;7.53;4.67;;;15.60;99.90;;;;;;5037973;28;20446;-80
2023/05/29 06:31:26;;;;;;;5.10;4.60;;;15.60;99.90;;;;;;5036803;28;20787;-79
2023/05/29 06:33:54;;;;;;;6.67;5.70;;;15.30;99.90;;;;;;5044297;28;20461;-81
2023/05/29 06:36:21;;;;;;;5.77;5.30;;;15.60;99.90;;;;;;5042014;28;20545;-79
2023/05/29 06:38:50;;;;;;;6.03;5.43;;;15.40;99.90;;;;;;5043762;28;20461;-79
2023/05/29 06:41:17;;;;;;;6.73;5.50;;;15.70;99.90;;;;;;5043884;28;20517;-79
2023/05/29 06:43:44;;;;;;;6.30;5.80;;;15.80;99.90;;;;;;5043607;28;20992;-79
2023/05/29 06:46:12;;;;;;;6.20;5.37;;;15.80;99.90;;;;;;5046685;28;20497;-77
2023/05/29 06:48:39;;;;;;;7.10;5.17;;;15.90;99.90;;;;;;5043355;28;20480;-79
2023/05/29 06:51:08;;;;;;;7.13;5.90;;;15.90;99.90;;;;;;5042799;28;20916;-79
2023/05/29 06:53:36;;;;;;;7.10;5.07;;;16.10;99.90;;;;;;5030329;28;20871;-78
2023/05/29 06:56:06;;;;;;;6.10;5.60;;;16.30;99.90;;;;;;5041449;28;20445;-82
2023/05/29 06:58:33;;;;;;;6.13;5.27;;;16.30;99.90;;;;;;5035165;28;20430;-79
2023/05/29 07:01:00;;;;;;;6.03;5.53;;;16.50;99.90;;;;;;5034786;28;20912;-79
2023/05/29 07:03:27;;;;;;;6.10;4.50;;;16.20;99.90;;;;;;5036225;28;20467;-79
2023/05/29 07:05:54;;;;;;;5.83;5.20;;;16.30;99.90;;;;;;5038631;28;20461;-78
2023/05/29 07:08:21;;;;;;;6.03;5.43;;;16.70;99.90;;;;;;5044491;28;20473;-79
2023/05/29 07:10:49;;;;;;;6.47;5.57;;;16.50;99.90;;;;;;5034877;28;20490;-80
2023/05/29 07:13:18;;;;;;;6.27;5.33;;;16.80;99.90;;;;;;5039731;28;20457;-79
2023/05/29 07:15:45;;;;;;;5.57;4.90;;;17.00;99.90;;;;;;5039400;28;20996;-80
2023/05/29 07:18:12;;;;;;;6.00;5.40;;;17.40;99.90;;;;;;5036872;28;20531;-79
2023/05/29 07:20:39;;;;;;;8.50;5.50;;;17.40;99.90;;;;;;5044977;28;20567;-81
2023/05/29 07:23:06;;;;;;;12.20;6.00;;;17.20;99.90;;;;;;5032367;28;20493;-80
2023/05/29 07:25:33;;;;;;;9.10;5.93;;;17.40;99.90;;;;;;5039622;28;20542;-79
2023/05/29 07:28:00;;;;;;;6.30;5.70;;;17.50;99.90;;;;;;5033433;28;20497;-82
2023/05/29 07:30:29;;;;;;;7.70;5.90;;;17.70;99.90;;;;;;5041524;28;20472;-78
2023/05/29 07:32:55;;;;;;;7.30;5.60;;;17.90;99.90;;;;;;5040774;28;20462;-79
2023/05/29 07:35:22;;;;;;;7.53;5.60;;;17.90;99.90;;;;;;5040299;28;21244;-79
2023/05/29 07:37:52;;;;;;;6.10;5.27;;;18.30;99.90;;;;;;5040415;28;20534;-78
2023/05/29 07:40:19;;;;;;;5.13;4.70;;;18.30;99.90;;;;;;5041587;28;20445;-80
2023/05/29 07:42:47;;;;;;;5.60;4.97;;;18.10;99.90;;;;;;5043253;28;20441;-80
2023/05/29 07:45:14;;;;;;;7.47;5.70;;;18.20;99.50;;;;;;5028746;28;20532;-79
2023/05/29 07:47:43;;;;;;;10.57;6.50;;;18.40;99.20;;;;;;5039267;28;20466;-82
2023/05/29 07:50:10;;;;;;;7.00;4.83;;;18.40;99.90;;;;;;5038749;28;20937;-82
2023/05/29 07:52:37;;;;;;;6.17;4.60;;;18.60;99.20;;;;;;5036812;28;20442;-80
2023/05/29 07:55:05;;;;;;;6.17;5.23;;;18.60;99.90;;;;;;5040148;28;20481;-80
2023/05/29 07:57:33;;;;;;;4.77;3.83;;;19.10;99.70;;;;;;5040621;28;20464;-81
2023/05/29 08:00:00;;;;;;;5.40;4.57;;;19.20;99.00;;;;;;5041165;28;20488;-82
2023/05/29 08:02:27;;;;;;;5.73;5.13;;;19.50;95.90;;;;;;5038067;28;20512;-80
2023/05/29 08:04:55;;;;;;;6.83;5.00;;;19.50;97.60;;;;;;5050135;28;20474;-79
2023/05/29 08:07:22;;;;;;;5.83;4.43;;;19.60;96.50;;;;;;5028330;28;20546;-83
2023/05/29 08:09:49;;;;;;;5.80;5.20;;;19.60;97.80;;;;;;5033700;28;20467;-80
2023/05/29 08:12:16;;;;;;;7.80;5.20;;;19.40;96.70;;;;;;5034312;28;20449;-81
2023/05/29 08:14:43;;;;;;;5.33;4.50;;;19.80;97.80;;;;;;5025921;28;20490;-80
2023/05/29 08:17:10;;;;;;;5.33;4.80;;;20.10;95.30;;;;;;5036259;28;20535;-80
2023/05/29 08:19:37;;;;;;;4.97;4.53;;;20.20;96.70;;;;;;5041249;28;20469;-79
2023/05/29 08:22:05;;;;;;;5.97;4.37;;;20.20;95.80;;;;;;5046888;28;20512;-80
2023/05/29 08:24:32;;;;;;;4.40;4.00;;;20.00;93.60;;;;;;5044916;28;20448;-81
2023/05/29 08:26:59;;;;;;;5.40;3.97;;;20.00;96.90;;;;;;5043731;28;20492;-81
2023/05/29 08:29:26;;;;;;;4.50;4.10;;;20.10;95.00;;;;;;5036195;28;20524;-83
2023/05/29 08:31:53;;;;;;;6.37;4.50;;;20.00;92.80;;;;;;5041689;28;21136;-81
2023/05/29 08:34:20;;;;;;;9.70;3.93;;;20.00;93.60;;;;;;5042665;28;20474;-80
2023/05/29 08:36:48;;;;;;;4.50;4.10;;;20.10;92.30;;;;;;5036473;28;20536;-79
2023/05/29 08:39:16;;;;;;;4.43;3.80;;;20.20;92.90;;;;;;5036120;28;20520;-81
2023/05/29 08:41:52;;;;;;;4.70;3.50;;;20.50;94.10;;;;;;5040458;28;20480;-82
2023/05/29 08:44:23;;;;;;;3.33;3.03;;;20.40;91.70;;;;;;5035468;28;20512;-79
2023/05/29 08:46:55;;;;;;;4.83;3.63;;;20.10;90.80;;;;;;5037129;28;20492;-80
2023/05/29 08:49:23;;;;;;;4.80;3.07;;;20.70;90.90;;;;;;5042824;28;20555;-80
2023/05/29 08:51:58;;;;;;;4.70;3.53;;;20.90;90.40;;;;;;5042981;28;20477;-80
2023/05/29 08:54:27;;;;;;;2.83;2.60;;;20.80;90.60;;;;;;5041147;28;20845;-83
2023/05/29 08:56:54;;;;;;;4.10;2.50;;;20.50;91.60;;;;;;5032944;28;20488;-80
2023/05/29 08:59:22;;;;;;;2.83;2.00;;;20.70;90.10;;;;;;5044805;28;20536;-80
2023/05/29 09:01:49;;;;;;;4.70;3.40;;;20.70;88.50;;;;;;5046252;28;21061;-80
2023/05/29 09:04:16;;;;;;;3.43;3.10;;;20.90;87.70;;;;;;5033417;28;20453;-82
2023/05/29 09:06:45;;;;;;;3.93;2.70;;;20.90;89.40;;;;;;5039593;28;20484;-80
2023/05/29 09:09:12;;;;;;;3.70;2.40;;;21.20;90.40;;;;;;5039983;28;20498;-79
2023/05/29 09:11:40;;;;;;;5.30;2.23;;;21.40;83.30;;;;;;5030744;28;20446;-82
2023/05/29 09:14:33;;;;;;;2.97;2.77;;;21.50;86.80;;;;;;5036400;28;20477;-79
2023/05/29 09:17:00;;;;;;;4.07;2.97;;;21.90;82.20;;;;;;5035454;28;20453;-80
2023/05/29 09:19:27;;;;;;;3.30;2.90;;;21.60;74.50;;;;;;5041558;28;20500;-81
2023/05/29 09:22:02;;;;;;;2.80;1.97;;;21.60;86.00;;;;;;5040878;28;20481;-82
2023/05/29 09:24:29;;;;;;;5.60;2.47;;;21.80;78.20;;;;;;5043091;28;20555;-78
2023/05/29 09:26:59;;;;;;;1.87;1.60;;;22.10;73.20;;;;;;5039262;28;20461;-79
2023/05/29 09:29:26;;;;;;;3.07;1.70;;;22.00;75.70;;;;;;5036389;28;20461;-82
2023/05/29 09:31:53;;;;;;;4.07;2.20;;;21.90;71.40;;;;;;5043875;28;20469;-78
2023/05/29 09:34:20;;;;;;;2.57;1.83;;;22.30;71.40;;;;;;5044499;28;20468;-80
2023/05/29 09:36:47;;;;;;;3.43;2.47;;;22.50;65.70;;;;;;5028163;28;20490;-79
2023/05/29 09:39:15;;;;;;;3.60;2.07;;;22.50;68.30;;;;;;5041027;28;20489;-79
2023/05/29 09:41:43;;;;;;;2.67;1.87;;;22.60;71.60;;;;;;5040305;28;20482;-79
2023/05/29 09:44:13;;;;;;;4.00;1.90;;;22.60;62.80;;;;;;5032229;28;20456;-81
2023/05/29 09:46:41;;;;;;;5.23;2.07;;;22.80;69.40;;;;;;5041000;28;20761;-80
2023/05/29 09:49:12;;;;;;;2.47;2.00;;;23.00;70.10;;;;;;5049879;28;20464;-79
2023/05/29 09:51:39;;;;;;;2.30;1.83;;;23.00;58.50;;;;;;5053472;28;20979;-79
2023/05/29 09:54:16;;;;;;;3.20;2.40;;;22.80;70.50;;;;;;5033606;28;20437;-80
2023/05/29 09:56:44;;;;;;;3.17;1.90;;;22.60;59.90;;;;;;5041474;28;20449;-81
2023/05/29 09:59:17;;;;;;;2.53;2.20;;;22.60;61.10;;;;;;5043673;28;20505;-82
2023/05/29 10:01:45;;;;;;;4.27;2.57;;;22.90;66.10;;;;;;5043914;28;20485;-79
2023/05/29 10:04:13;;;;;;;3.23;2.70;;;22.70;60.20;;;;;;5037381;28;20593;-80
2023/05/29 10:06:44;;;;;;;3.23;2.90;;;22.90;64.70;;;;;;5034986;28;20466;-79
2023/05/29 10:09:14;;;;;;;4.90;2.50;;;23.40;62.60;;;;;;5033507;28;20495;-78
2023/05/29 10:11:44;;;;;;;3.03;2.70;;;23.40;58.90;;;;;;5041932;28;20784;-80
2023/05/29 10:14:17;;;;;;;3.93;2.77;;;23.50;59.00;;;;;;5039656;28;20784;-79
2023/05/29 10:16:47;;;;;;;2.90;2.70;;;23.30;57.70;;;;;;5041804;28;20493;-79
2023/05/29 10:19:21;;;;;;;3.40;2.00;;;23.20;59.00;;;;;;5036843;28;20767;-79
2023/05/29 10:21:50;;;;;;;3.07;2.70;;;23.40;58.60;;;;;;5045113;28;20496;-78
2023/05/29 10:24:18;;;;;;;4.00;2.20;;;23.60;56.20;;;;;;5052570;28;20505;-81
2023/05/29 10:26:48;;;;;;;5.37;3.00;;;23.70;60.40;;;;;;5035673;28;20489;-79
2023/05/29 10:29:27;;;;;;;4.20;3.20;;;24.00;59.00;;;;;;5048576;28;20477;-78
2023/05/29 10:32:06;;;;;;;2.63;2.43;;;23.80;55.70;;;;;;5042578;28;20523;-79
2023/05/29 10:34:41;;;;;;;2.43;1.90;;;23.70;56.30;;;;;;5048194;28;20489;-79
2023/05/29 10:37:19;;;;;;;2.90;2.60;;;24.00;54.30;;;;;;5044490;28;20498;-78
2023/05/29 10:39:46;;;;;;;2.23;2.03;;;23.60;56.10;;;;;;5041116;28;20509;-78
2023/05/29 10:42:45;;;;;;;2.30;2.10;;;23.40;49.00;;;;;;5042292;28;20517;-78
2023/05/29 10:45:46;;;;;;;3.27;2.40;;;23.40;49.50;;;;;;5037491;28;20545;-79
2023/05/29 10:48:42;;;;;;;4.70;3.23;;;23.40;48.90;;;;;;5032619;28;20485;-79
2023/05/29 10:51:24;;;;;;;2.60;2.33;;;24.00;46.40;;;;;;5038306;28;20536;-80
2023/05/29 10:53:52;;;;;;;3.13;2.83;;;23.90;45.50;;;;;;5036488;28;21014;-79
2023/05/29 10:56:24;;;;;;;2.50;2.10;;;23.80;50.10;;;;;;5040232;28;20477;-80
2023/05/29 10:58:55;;;;;;;3.07;2.70;;;23.90;51.30;;;;;;5038106;28;20938;-79
2023/05/29 11:01:24;;;;;;;2.63;2.40;;;24.10;54.90;;;;;;5032254;28;20978;-81
2023/05/29 11:03:53;;;;;;;3.43;2.97;;;24.20;51.10;;;;;;5034560;28;21220;-79
2023/05/29 11:06:23;;;;;;;4.27;2.60;;;24.10;45.20;;;;;;5033718;28;20468;-81
2023/05/29 11:08:55;;;;;;;3.80;2.50;;;24.40;48.00;;;;;;5031514;28;20464;-79
2023/05/29 11:11:31;;;;;;;2.77;2.17;;;24.60;50.70;;;;;;5035241;28;20621;-81
2023/05/29 11:14:02;;;;;;;2.73;2.10;;;25.00;50.10;;;;;;5046773;28;20460;-79
2023/05/29 11:16:39;;;;;;;3.60;2.37;;;24.90;48.20;;;;;;5041840;28;20506;-79
2023/05/29 11:19:09;;;;;;;2.50;2.20;;;24.60;46.50;;;;;;5043936;28;20867;-82
2023/05/29 11:21:51;;;;;;;3.20;2.60;;;24.40;52.30;;;;;;5047922;28;20985;-78
2023/05/29 11:24:25;;;;;;;3.63;2.40;;;24.20;47.80;;;;;;5048520;28;20490;-79
2023/05/29 11:26:53;;;;;;;2.43;2.20;;;24.20;51.10;;;;;;5040184;28;20540;-78
2023/05/29 11:29:23;;;;;;;4.70;2.73;;;24.30;49.20;;;;;;5047414;28;20803;-80
2023/05/29 11:31:56;;;;;;;2.30;2.03;;;24.00;49.40;;;;;;5044241;28;20484;-79
2023/05/29 11:34:27;;;;;;;2.33;1.80;;;24.20;49.20;;;;;;5042875;28;20463;-81
2023/05/29 11:36:54;;;;;;;3.10;2.80;;;24.40;49.60;;;;;;5047238;28;20461;-82
2023/05/29 11:39:21;;;;;;;2.20;2.00;;;24.80;49.00;;;;;;5034663;28;20555;-80
2023/05/29 11:41:52;;;;;;;3.93;2.80;;;24.50;51.00;;;;;;5047410;28;20512;-80
2023/05/29 11:44:19;;;;;;;3.33;2.80;;;24.50;45.30;;;;;;5037710;28;20483;-79
2023/05/29 11:46:46;;;;;;;2.53;2.33;;;23.90;46.30;;;;;;5038914;28;21034;-80
2023/05/29 11:49:13;;;;;;;4.00;3.07;;;24.10;50.00;;;;;;5036159;28;20495;-80
2023/05/29 11:51:44;;;;;;;3.57;3.00;;;24.10;44.90;;;;;;5041500;28;20479;-83
2023/05/29 11:54:13;;;;;;;2.80;2.53;;;24.00;53.50;;;;;;5038244;28;20445;-79
2023/05/29 11:56:40;;;;;;;3.07;2.70;;;23.80;50.20;;;;;;5039977;28;20455;-80
2023/05/29 11:59:12;;;;;;;3.23;2.83;;;24.20;51.40;;;;;;5032813;28;20498;-80
2023/05/29 12:01:39;;;;;;;2.30;2.10;;;23.90;45.80;;;;;;5041298;28;20545;-81
2023/05/29 12:04:15;;;;;;;2.17;1.97;;;24.00;52.00;;;;;;5043062;28;20467;-79
2023/05/29 12:06:44;;;;;;;5.93;2.30;;;24.00;48.80;;;;;;5059425;28;20542;-78
2023/05/29 12:09:25;;;;;;;4.93;2.23;;;23.90;49.40;;;;;;5040002;28;21078;-80
2023/05/29 12:11:52;;;;;;;5.40;2.90;;;23.90;54.20;;;;;;5044926;28;20490;-80
2023/05/29 12:14:19;;;;;;;3.40;2.93;;;24.20;52.40;;;;;;5047631;28;20555;-80
2023/05/29 12:16:46;;;;;;;2.80;2.17;;;24.30;55.10;;;;;;5037123;28;20512;-81
2023/05/29 12:19:14;;;;;;;2.27;1.83;;;24.20;51.20;;;;;;5044962;28;20576;-82
2023/05/29 12:21:44;;;;;;;3.50;2.70;;;24.40;50.50;;;;;;5045358;28;21057;-80
2023/05/29 12:24:11;;;;;;;2.80;2.10;;;24.70;51.00;;;;;;5044062;28;20901;-82
2023/05/29 12:26:39;;;;;;;2.80;2.60;;;24.80;48.90;;;;;;5045174;28;20531;-79
2023/05/29 12:29:06;;;;;;;2.63;2.23;;;24.70;51.80;;;;;;5046307;28;20490;-80
2023/05/29 12:31:33;;;;;;;3.70;2.23;;;24.50;49.00;;;;;;5046775;28;20481;-80
2023/05/29 12:34:10;;;;;;;3.37;2.57;;;24.50;50.80;;;;;;5054169;28;20485;-80
2023/05/29 12:36:37;;;;;;;2.53;2.30;;;24.20;47.70;;;;;;5044159;28;20475;-80
2023/05/29 12:39:09;;;;;;;3.27;2.97;;;24.40;51.90;;;;;;5034207;28;20468;-80
2023/05/29 12:41:38;;;;;;;3.03;2.37;;;24.50;48.20;;;;;;5042849;28;20473;-80
2023/05/29 12:44:06;;;;;;;3.13;2.90;;;24.20;48.90;;;;;;5035688;28;20488;-82
2023/05/29 12:46:38;;;;;;;3.17;2.87;;;24.20;46.60;;;;;;5044895;28;21008;-80
2023/05/29 12:49:13;;;;;;;2.10;1.90;;;24.00;47.80;;;;;;5045386;28;20435;-78
2023/05/29 12:51:42;;;;;;;3.87;3.03;;;23.80;47.30;;;;;;5043171;28;20462;-82
2023/05/29 12:54:11;;;;;;;2.20;2.03;;;23.70;50.20;;;;;;5036337;28;20506;-80
2023/05/29 12:56:40;;;;;;;3.67;2.40;;;24.00;47.50;;;;;;5038656;28;21219;-82